Time;durP1;ratioP1;P1;durP2;ratioP2;P2;SDS_P1;SDS_P2;PMS_P1;PMS_P2;Temp;Humidity;BMP_temperature;BMP_pressure;BME280_temperature;BME280_humidity;BME280_pressure;Samples;Min_cycle;Max_cycle;Signal;HPM_P1;HPM_P2
2022/07/30 00:01:32;;;;;;;;;5.25;4.50;;;;;25.54;32.85;101467.31;5099362;27;45384;-63
2022/07/30 00:03:58;;;;;;;;;4.80;3.20;;;;;25.51;32.54;101475.91;5098565;27;45452;-60
2022/07/30 00:06:23;;;;;;;;;5.50;4.50;;;;;25.47;33.15;101477.44;5098709;27;45298;-61
2022/07/30 00:08:49;;;;;;;;;5.25;5.25;;;;;25.42;33.26;101462.84;5098923;27;45220;-62
2022/07/30 00:11:14;;;;;;;;;5.25;4.00;;;;;25.42;32.85;101476.47;5099126;27;45352;-62
2022/07/30 00:13:39;;;;;;;;;5.25;4.50;;;;;25.37;33.49;101479.88;5098513;27;46307;-63
2022/07/30 00:16:06;;;;;;;;;4.50;4.50;;;;;25.35;33.25;101477.34;5098634;27;45193;-63
2022/07/30 00:18:31;;;;;;;;;57.00;44.67;;;;;25.28;33.36;101479.34;5098679;27;45461;-60
2022/07/30 00:20:57;;;;;;;;;42.33;35.00;;;;;25.26;33.75;101480.63;5098706;27;45273;-63
2022/07/30 00:23:22;;;;;;;;;10.75;8.75;;;;;25.24;34.10;101480.84;5098275;27;45937;-62
2022/07/30 00:25:47;;;;;;;;;6.50;5.00;;;;;25.21;33.88;101478.56;5098393;27;45351;-61
2022/07/30 00:28:13;;;;;;;;;7.00;5.50;;;;;25.11;33.75;101470.94;5098591;27;45317;-61
2022/07/30 00:30:39;;;;;;;;;5.75;5.75;;;;;25.16;33.67;101472.13;5098778;27;45379;-60
2022/07/30 00:33:05;;;;;;;;;7.50;6.00;;;;;25.06;34.65;101462.56;5096691;27;46911;-61
2022/07/30 00:35:31;;;;;;;;;6.00;6.00;;;;;25.09;34.23;101466.75;5098371;27;45500;-61
2022/07/30 00:37:56;;;;;;;;;4.00;3.75;;;;;25.07;34.70;101469.69;5098542;27;45347;-62
2022/07/30 00:40:22;;;;;;;;;4.50;4.50;;;;;25.05;34.73;101463.63;5098387;27;45391;-61
2022/07/30 00:42:48;;;;;;;;;5.00;4.00;;;;;25.05;34.50;101462.78;5097602;27;46637;-61
2022/07/30 00:45:15;;;;;;;;;7.00;5.25;;;;;25.05;35.20;101463.63;5098241;27;45860;-61
2022/07/30 00:47:40;;;;;;;;;6.60;5.20;;;;;25.06;35.16;101467.16;5098183;27;45218;-55
2022/07/30 00:50:08;;;;;;;;;4.25;4.25;;;;;25.07;35.02;101466.97;5097239;27;45394;-62
2022/07/30 00:52:37;;;;;;;;;6.00;5.50;;;;;25.02;35.10;101446.91;5097985;27;46264;-62
2022/07/30 00:55:04;;;;;;;;;6.40;4.80;;;;;25.08;35.25;101451.47;5096592;27;45589;-63
2022/07/30 00:57:29;;;;;;;;;6.00;5.00;;;;;25.08;34.57;101459.63;5098294;27;45258;-62
2022/07/30 00:59:54;;;;;;;;;6.25;5.00;;;;;25.06;34.65;101454.38;5098242;27;45473;-63
2022/07/30 01:02:20;;;;;;;;;7.00;4.00;;;;;25.03;34.98;101454.00;5097877;27;46286;-56
2022/07/30 01:04:46;;;;;;;;;6.50;5.50;;;;;25.02;35.13;101446.91;5097854;27;45458;-55
2022/07/30 01:07:11;;;;;;;;;8.00;5.00;;;;;24.89;35.35;101439.69;5097602;27;45360;-56
2022/07/30 01:09:38;;;;;;;;;3.00;3.00;;;;;24.97;35.34;101444.84;5098078;27;45280;-56
2022/07/30 01:12:05;;;;;;;;;2.00;2.00;;;;;24.94;35.82;101458.91;5096352;27;47251;-55
2022/07/30 01:14:33;;;;;;;;;9.20;6.00;;;;;24.89;35.46;101456.84;5097610;27;45524;-62
2022/07/30 01:16:59;;;;;;;;;7.00;7.00;;;;;24.78;35.31;101451.34;5097881;27;45379;-61
2022/07/30 01:19:47;;;;;;;;;7.50;5.50;;;;;24.76;35.95;101457.00;5097882;27;45294;-57
2022/07/30 01:22:45;;;;;;;;;7.25;4.50;;;;;24.66;36.06;101447.69;5097488;27;47237;-55
2022/07/30 01:25:23;;;;;;;;;6.00;5.40;;;;;24.63;36.52;101452.50;5097341;27;45694;-55
2022/07/30 01:27:58;;;;;;;;;5.00;5.00;;;;;24.47;36.18;101439.44;5097713;27;45518;-60
2022/07/30 01:30:27;;;;;;;;;7.25;5.25;;;;;24.51;36.98;101456.16;5097903;27;45322;-62
2022/07/30 01:32:54;;;;;;;;;7.50;6.50;;;;;24.47;36.90;101457.66;5097259;27;45330;-59
2022/07/30 01:35:22;;;;;;;;;6.60;6.60;;;;;24.43;36.98;101456.44;5097308;27;45329;-62
2022/07/30 01:37:49;;;;;;;;;7.50;5.75;;;;;24.37;37.04;101450.84;5097656;27;45365;-56
2022/07/30 01:40:15;;;;;;;;;7.25;5.75;;;;;24.38;37.70;101457.09;5097604;27;45275;-56
2022/07/30 01:42:42;;;;;;;;;7.00;7.00;;;;;24.35;37.58;101452.91;5097136;27;45411;-56
2022/07/30 01:45:08;;;;;;;;;8.00;6.20;;;;;24.32;37.83;101456.06;5097574;27;45243;-55
2022/07/30 01:47:37;;;;;;;;;7.00;7.00;;;;;24.31;37.78;101450.84;5097364;27;45349;-61
2022/07/30 01:50:07;;;;;;;;;6.50;6.50;;;;;24.26;37.82;101450.66;5097563;27;45315;-56
2022/07/30 01:52:36;;;;;;;;;11.75;7.00;;;;;24.25;37.69;101455.28;5097012;27;46250;-59
2022/07/30 01:55:03;;;;;;;;;6.40;4.60;;;;;24.22;38.10;101453.00;5098378;27;45395;-54
2022/07/30 01:57:31;;;;;;;;;7.50;6.25;;;;;24.23;38.10;101459.25;5101013;27;45428;-56
2022/07/30 02:00:01;;;;;;;;;5.75;3.25;;;;;24.21;37.94;101456.78;5101086;27;45314;-57
2022/07/30 02:02:27;;;;;;;;;7.75;7.75;;;;;24.22;38.50;101458.44;5100640;27;46127;-54
2022/07/30 02:04:52;;;;;;;;;7.50;6.50;;;;;24.21;38.29;101461.38;5100836;27;45363;-58
2022/07/30 02:07:37;;;;;;;;;7.00;6.00;;;;;24.19;38.33;101455.31;5100904;27;45367;-57
2022/07/30 02:10:22;;;;;;;;;5.75;5.00;;;;;24.12;38.34;101458.94;5099480;27;45311;-55
2022/07/30 02:12:52;;;;;;;;;8.75;7.25;;;;;24.08;38.62;101460.41;5100425;27;45358;-57
2022/07/30 02:15:28;;;;;;;;;22.25;20.75;;;;;24.06;38.44;101453.50;5100620;27;45388;-61
2022/07/30 02:18:05;;;;;;;;;14.75;11.75;;;;;24.03;38.46;101456.69;5100848;27;45415;-62
2022/07/30 02:20:32;;;;;;;;;12.50;11.50;;;;;24.01;39.47;101459.59;5100762;27;45451;-60
2022/07/30 02:23:02;;;;;;;;;11.50;9.25;;;;;24.00;39.29;101455.22;5099962;27;46512;-58
2022/07/30 02:25:28;;;;;;;;;6.80;6.40;;;;;24.00;39.37;101460.66;5100470;27;45318;-55
2022/07/30 02:27:59;;;;;;;;;7.25;6.75;;;;;23.97;39.31;101455.66;5100678;27;45426;-56
2022/07/30 02:30:29;;;;;;;;;9.50;6.25;;;;;23.96;39.19;101453.16;5100407;27;45355;-59
2022/07/30 02:33:00;;;;;;;;;7.75;4.75;;;;;23.96;39.55;101454.00;5099993;27;47002;-57
2022/07/30 02:35:28;;;;;;;;;7.75;7.75;;;;;23.90;39.45;101442.13;5100348;27;45421;-59
2022/07/30 02:37:56;;;;;;;;;9.00;7.00;;;;;23.90;39.37;101450.28;5100448;27;45404;-61
2022/07/30 02:40:23;;;;;;;;;9.00;6.00;;;;;23.87;39.45;101449.88;5100318;27;45413;-57
2022/07/30 02:42:51;;;;;;;;;5.00;5.00;;;;;23.88;39.78;101446.09;5100027;27;46021;-58
2022/07/30 02:45:18;;;;;;;;;5.00;5.00;;;;;23.86;39.89;101449.06;5100158;27;45475;-62
2022/07/30 02:47:52;;;;;;;;;6.00;4.00;;;;;23.81;39.77;101443.44;5100207;27;45409;-60
2022/07/30 02:50:19;;;;;;;;;7.00;6.25;;;;;23.76;39.91;101432.38;5100547;27;45567;-63
2022/07/30 02:52:46;;;;;;;;;5.25;5.25;;;;;23.77;40.10;101446.81;5098476;27;46253;-58
2022/07/30 02:55:13;;;;;;;;;6.00;6.00;;;;;23.73;40.17;101446.41;5099782;27;45297;-60
2022/07/30 02:57:41;;;;;;;;;6.75;6.50;;;;;23.71;39.99;101443.06;5100119;27;45497;-61
2022/07/30 03:00:07;;;;;;;;;7.75;6.50;;;;;23.70;40.31;101451.44;5100366;27;45571;-58
2022/07/30 03:02:34;;;;;;;;;17.00;15.50;;;;;23.61;40.36;101442.66;5099629;27;45450;-60
2022/07/30 03:05:03;;;;;;;;;11.50;11.00;;;;;23.62;40.38;101453.31;5099440;27;45381;-64
2022/07/30 03:07:30;;;;;;;;;11.00;8.75;;;;;23.59;40.31;101453.72;5099765;27;45386;-64
2022/07/30 03:09:57;;;;;;;;;8.75;8.25;;;;;23.57;40.57;101455.84;5099882;27;45495;-60
2022/07/30 03:12:23;;;;;;;;;6.75;6.75;;;;;23.56;40.64;101459.63;5098405;27;46177;-60
2022/07/30 03:14:50;;;;;;;;;7.00;7.00;;;;;23.53;40.52;101443.75;5099676;27;45532;-58
2022/07/30 03:17:18;;;;;;;;;8.00;6.00;;;;;23.49;40.62;101447.09;5099915;27;45416;-58
2022/07/30 03:19:47;;;;;;;;;92.75;77.00;;;;;23.53;40.58;101451.88;5100004;27;45255;-57
2022/07/30 03:22:15;;;;;;;;;9.25;8.50;;;;;23.52;40.77;101450.22;5099628;27;45388;-56
2022/07/30 03:24:42;;;;;;;;;6.75;6.75;;;;;;;;5099558;27;45342;-59
2022/07/30 03:27:08;;;;;;;;;7.00;5.50;;;;;23.44;40.80;101446.91;5099526;27;45509;-57
2022/07/30 03:29:38;;;;;;;;;7.75;7.00;;;;;23.44;40.94;101445.03;5099845;27;45388;-56
2022/07/30 03:32:05;;;;;;;;;9.25;7.25;;;;;23.44;40.78;101455.06;5099482;27;47091;-57
2022/07/30 03:34:34;;;;;;;;;5.25;5.25;;;;;23.41;40.64;101440.03;5099192;27;45595;-56
2022/07/30 03:37:04;;;;;;;;;9.00;5.50;;;;;23.40;41.12;101444.63;5099653;27;45398;-56
2022/07/30 03:39:33;;;;;;;;;6.25;6.25;;;;;23.39;41.00;101450.28;5099582;27;45420;-56
2022/07/30 03:41:59;;;;;;;;;5.50;4.75;;;;;23.37;40.91;101439.63;5099186;27;45957;-57
2022/07/30 03:44:25;;;;;;;;;12.75;8.50;;;;;23.37;40.79;101446.94;5099295;27;45270;-57
2022/07/30 03:46:53;;;;;;;;;8.00;8.00;;;;;23.35;40.94;101447.16;5099217;27;45475;-56
2022/07/30 03:49:21;;;;;;;;;7.25;7.25;;;;;23.33;41.26;101442.97;5099434;27;45309;-62
2022/07/30 03:51:48;;;;;;;;;7.25;5.75;;;;;23.33;40.92;101453.84;5098927;27;46235;-59
2022/07/30 03:54:14;;;;;;;;;6.50;5.00;;;;;23.31;41.50;101450.53;5099036;27;45206;-60
2022/07/30 03:56:40;;;;;;;;;9.00;7.00;;;;;23.32;41.20;101457.59;5099138;27;45324;-60
2022/07/30 03:59:06;;;;;;;;;6.00;4.25;;;;;23.29;41.51;101466.16;5099400;27;45429;-59
2022/07/30 04:01:31;;;;;;;;;7.00;7.00;;;;;23.28;41.43;101470.78;5098924;27;45238;-58
2022/07/30 04:04:09;;;;;;;;;5.50;5.50;;;;;23.28;41.26;101467.22;5098885;27;45371;-57
2022/07/30 04:06:38;;;;;;;;;11.50;10.75;;;;;23.28;41.52;101478.09;5099003;27;45362;-57
2022/07/30 04:09:06;;;;;;;;;12.00;8.00;;;;;23.26;41.71;101463.88;5099017;27;45371;-58
2022/07/30 04:11:31;;;;;;;;;7.00;7.00;;;;;23.23;41.24;101465.16;5098487;27;46536;-56
2022/07/30 04:13:56;;;;;;;;;8.50;6.75;;;;;23.20;41.54;101453.88;5098530;27;45407;-56
2022/07/30 04:16:29;;;;;;;;;6.25;6.25;;;;;23.19;41.41;101460.38;5098908;27;45221;-56
2022/07/30 04:18:58;;;;;;;;;5.75;5.75;;;;;23.19;41.36;101458.47;5098236;27;45422;-55
2022/07/30 04:21:25;;;;;;;;;6.75;5.75;;;;;23.15;41.76;101454.53;5098491;27;46147;-58
2022/07/30 04:23:53;;;;;;;;;9.75;9.00;;;;;23.13;41.49;101457.47;5098560;27;45528;-56
2022/07/30 04:26:20;;;;;;;;;13.00;12.25;;;;;23.12;41.55;101468.50;5098436;27;45414;-55
2022/07/30 04:28:46;;;;;;;;;8.50;8.25;;;;;23.09;41.92;101466.22;5098689;27;45461;-58
2022/07/30 04:31:11;;;;;;;;;6.25;6.25;;;;;23.08;41.92;101473.53;5098217;27;45311;-56
2022/07/30 04:33:37;;;;;;;;;4.50;4.50;;;;;23.08;41.96;101475.41;5098157;27;45462;-59
2022/07/30 04:36:09;;;;;;;;;6.75;5.00;;;;;23.03;41.90;101470.63;5098556;27;45287;-55
2022/07/30 04:38:34;;;;;;;;;6.50;5.75;;;;;23.07;41.94;101466.44;5098664;27;45427;-55
2022/07/30 04:41:00;;;;;;;;;6.75;6.50;;;;;23.09;41.93;101477.06;5098150;27;46105;-58
2022/07/30 04:43:25;;;;;;;;;6.50;6.00;;;;;23.06;41.95;101472.91;5098346;27;45289;-56
2022/07/30 04:45:51;;;;;;;;;7.25;6.75;;;;;23.10;41.91;101478.75;5098527;27;45174;-56
2022/07/30 04:48:16;;;;;;;;;5.00;5.00;;;;;23.08;41.87;101467.25;5098776;27;45370;-56
2022/07/30 04:50:45;;;;;;;;;2.75;2.75;;;;;23.07;42.16;101466.44;5097680;27;45476;-56
2022/07/30 04:53:11;;;;;;;;;7.75;7.25;;;;;22.98;42.32;101451.44;5097986;27;45302;-55
2022/07/30 04:55:40;;;;;;;;;8.50;8.00;;;;;23.10;41.93;101473.31;5098107;27;45400;-57
2022/07/30 04:58:08;;;;;;;;;7.75;7.00;;;;;23.12;42.22;101477.47;5098434;27;45153;-55
2022/07/30 05:00:37;;;;;;;;;12.00;9.00;;;;;23.13;42.26;101476.47;5097765;27;46056;-55
2022/07/30 05:03:04;;;;;;;;;8.75;8.75;;;;;23.16;41.96;101484.16;5097934;27;45382;-62
2022/07/30 05:05:31;;;;;;;;;7.25;5.50;;;;;23.11;42.22;101473.09;5098167;27;45983;-61
2022/07/30 05:07:59;;;;;;;;;10.75;7.75;;;;;23.17;42.42;101484.97;5098121;27;45475;-60
2022/07/30 05:10:24;;;;;;;;;8.00;6.00;;;;;23.19;42.17;101484.78;5097804;27;46115;-58
2022/07/30 05:12:49;;;;;;;;;7.00;7.00;;;;;23.15;42.28;101468.91;5097810;27;45352;-56
2022/07/30 05:15:15;;;;;;;;;13.25;8.75;;;;;23.15;41.61;101471.63;5098027;27;45752;-56
2022/07/30 05:17:40;;;;;;;;;8.75;6.75;;;;;23.19;41.83;101484.78;5098178;27;45344;-57
2022/07/30 05:20:06;;;;;;;;;7.25;6.00;;;;;23.12;42.22;101476.66;5097600;27;45468;-59
2022/07/30 05:22:32;;;;;;;;;9.00;8.00;;;;;23.13;42.23;101483.75;5097842;27;45439;-60
2022/07/30 05:24:57;;;;;;;;;9.50;8.25;;;;;23.19;42.30;101493.75;5097713;27;45297;-62
2022/07/30 05:27:23;;;;;;;;;7.25;7.25;;;;;23.18;41.93;101486.69;5097973;27;45505;-59
2022/07/30 05:29:48;;;;;;;;;10.25;7.25;;;;;23.18;42.20;101483.97;5097377;27;46139;-60
2022/07/30 05:32:13;;;;;;;;;10.00;9.50;;;;;23.24;42.22;101495.84;5097300;27;45267;-61
2022/07/30 05:34:39;;;;;;;;;9.00;7.75;;;;;23.25;42.09;101492.91;5097432;27;45726;-61
2022/07/30 05:37:05;;;;;;;;;9.25;7.50;;;;;23.27;42.14;101498.97;5097834;27;45363;-62
2022/07/30 05:39:30;;;;;;;;;5.00;5.00;;;;;23.22;42.18;101484.34;5096163;27;47773;-59
2022/07/30 05:41:56;;;;;;;;;7.75;6.75;;;;;23.34;41.61;101496.22;5097094;27;45977;-60
2022/07/30 05:44:21;;;;;;;;;8.25;7.75;;;;;23.30;41.75;101493.13;5097535;27;45530;-62
2022/07/30 05:46:47;;;;;;;;;6.00;6.00;;;;;23.33;41.78;101502.72;5097885;27;45509;-60
2022/07/30 05:49:14;;;;;;;;;8.25;8.25;;;;;23.31;41.94;101497.50;5097312;27;46062;-61
2022/07/30 05:51:40;;;;;;;;;7.25;6.75;;;;;23.33;42.05;101500.81;5097604;27;45378;-61
2022/07/30 05:54:05;;;;;;;;;9.50;7.00;;;;;23.38;42.14;101508.31;5097376;27;45580;-63
2022/07/30 05:56:30;;;;;;;;;7.00;7.00;;;;;23.41;41.84;101510.63;5097424;27;45436;-62
2022/07/30 05:58:56;;;;;;;;;6.75;6.75;;;;;23.46;41.76;101504.56;5097387;27;46066;-61
2022/07/30 06:01:21;;;;;;;;;7.25;7.25;;;;;23.48;41.74;101503.31;5097236;27;45506;-59
2022/07/30 06:03:47;;;;;;;;;11.50;8.75;;;;;23.48;41.50;101500.59;5097711;27;45339;-63
2022/07/30 06:06:12;;;;;;;;;8.25;8.25;;;;;23.49;41.68;101502.25;5097280;27;45464;-56
2022/07/30 06:08:38;;;;;;;;;10.25;7.25;;;;;23.51;41.54;101502.03;5097067;27;45498;-57
2022/07/30 06:11:03;;;;;;;;;10.25;8.00;;;;;23.51;41.57;101500.16;5096948;27;45444;-59
2022/07/30 06:13:28;;;;;;;;;7.75;7.00;;;;;23.50;41.79;101498.47;5097115;27;45249;-61
2022/07/30 06:15:54;;;;;;;;;9.75;8.75;;;;;23.60;41.50;101498.03;5097280;27;45327;-61
2022/07/30 06:18:19;;;;;;;;;8.50;8.50;;;;;23.64;41.36;101502.00;5096949;27;46121;-62
2022/07/30 06:20:45;;;;;;;;;8.50;8.00;;;;;23.68;41.37;101496.97;5096923;27;45393;-59
2022/07/30 06:23:11;;;;;;;;;11.50;9.00;;;;;23.70;40.99;101501.16;5096997;27;45160;-60
2022/07/30 06:25:36;;;;;;;;;9.00;9.00;;;;;23.77;41.13;101507.41;5097255;27;45358;-61
2022/07/30 06:28:02;;;;;;;;;7.50;7.50;;;;;23.84;40.97;101510.09;5096784;27;45805;-61
2022/07/30 06:30:28;;;;;;;;;10.50;8.00;;;;;23.92;40.96;101515.28;5096853;27;45402;-61
2022/07/30 06:32:54;;;;;;;;;6.75;6.25;;;;;24.02;40.64;101521.09;5096808;27;45405;-60
2022/07/30 06:35:19;;;;;;;;;9.75;7.25;;;;;24.15;40.57;101510.16;5096939;27;45306;-55
2022/07/30 06:37:44;;;;;;;;;12.50;7.00;;;;;24.28;40.59;101522.00;5096635;27;46897;-61
2022/07/30 06:40:10;;;;;;;;;10.00;6.50;;;;;24.33;40.54;101519.44;5096797;27;45382;-63
2022/07/30 06:42:36;;;;;;;;;13.00;9.00;;;;;24.38;40.28;101527.81;5100124;27;45389;-61
2022/07/30 06:45:01;;;;;;;;;8.75;8.00;;;;;24.54;39.75;101531.88;5099159;27;45296;-62
2022/07/30 06:47:28;;;;;;;;;9.50;8.75;;;;;24.82;39.46;101528.75;5100099;27;46197;-57
2022/07/30 06:49:54;;;;;;;;;10.00;8.25;;;;;25.08;38.98;101531.28;5099958;27;45207;-59
2022/07/30 06:52:19;;;;;;;;;9.50;9.50;;;;;25.27;38.45;101531.28;5100242;27;45164;-61
2022/07/30 06:54:47;;;;;;;;;8.00;7.00;;;;;25.54;38.05;101532.69;5100276;27;45243;-56
2022/07/30 06:57:12;;;;;;;;;10.75;8.75;;;;;25.57;38.00;101515.03;5099887;27;47180;-62
2022/07/30 06:59:38;;;;;;;;;9.50;7.00;;;;;25.84;37.96;101531.94;5100120;27;45336;-57
2022/07/30 07:02:03;;;;;;;;;7.25;7.00;;;;;26.02;36.99;101539.25;5100055;27;45426;-55
2022/07/30 07:04:30;;;;;;;;;10.00;8.50;;;;;26.20;37.20;101538.38;5100162;27;45358;-60
2022/07/30 07:06:56;;;;;;;;;8.25;7.25;;;;;26.35;36.60;101534.16;5099775;27;46290;-61
2022/07/30 07:09:21;;;;;;;;;9.00;7.00;;;;;26.58;36.79;101549.78;5099805;27;45305;-60
2022/07/30 07:11:46;;;;;;;;;8.25;8.25;;;;;26.77;36.06;101542.38;5099726;27;45525;-63
2022/07/30 07:14:12;;;;;;;;;8.00;8.00;;;;;27.05;35.64;101544.44;5099838;27;45592;-62
2022/07/30 07:16:37;;;;;;;;;9.50;8.00;;;;;27.29;35.15;101544.44;5099734;27;45721;-58
2022/07/30 07:19:03;;;;;;;;;8.00;8.00;;;;;27.56;34.76;101550.25;5099846;27;45229;-59
2022/07/30 07:21:28;;;;;;;;;7.25;6.00;;;;;27.68;34.52;101555.66;5099834;27;45211;-58
2022/07/30 07:23:53;;;;;;;;;6.50;6.25;;;;;27.77;34.53;101554.25;5100077;27;45350;-64
2022/07/30 07:26:19;;;;;;;;;7.00;7.00;;;;;28.03;33.99;101559.19;5099677;27;47115;-58
2022/07/30 07:28:44;;;;;;;;;7.50;7.00;;;;;28.21;33.59;101551.88;5100426;27;45287;-60
2022/07/30 07:31:10;;;;;;;;;6.50;6.50;;;;;28.42;33.34;101556.66;5099729;27;45254;-63
2022/07/30 07:33:36;;;;;;;;;8.25;6.25;;;;;28.69;32.47;101553.28;5099501;27;45234;-64
2022/07/30 07:36:01;;;;;;;;;10.20;8.20;;;;;29.04;32.04;101555.84;5099253;27;46178;-58
2022/07/30 07:38:27;;;;;;;;;6.00;6.00;;;;;29.80;31.08;101551.44;5099453;27;45260;-61
2022/07/30 07:40:52;;;;;;;;;7.00;7.00;;;;;31.26;29.32;101544.03;5099580;27;45366;-58
2022/07/30 07:43:18;;;;;;;;;8.75;7.00;;;;;32.36;27.71;101542.28;5099444;27;45508;-61
2022/07/30 07:45:44;;;;;;;;;6.75;6.75;;;;;32.96;26.94;101544.31;5097967;27;48123;-58
2022/07/30 07:48:11;;;;;;;;;7.80;6.20;;;;;33.27;26.45;101560.78;5099241;27;45339;-62
2022/07/30 07:50:36;;;;;;;;;5.60;5.60;;;;;33.86;25.74;101543.47;5099330;27;45393;-64
2022/07/30 07:53:03;;;;;;;;;7.25;5.75;;;;;33.84;25.88;101537.44;5099468;27;45390;-62
2022/07/30 07:55:28;;;;;;;;;7.00;6.00;;;;;33.78;26.02;101539.38;5099014;27;45411;-59
2022/07/30 07:57:54;;;;;;;;;6.50;6.25;;;;;33.75;25.51;101545.47;5098749;27;45411;-64
2022/07/30 08:00:19;;;;;;;;;8.00;8.00;;;;;34.59;25.04;101541.94;5099255;27;45176;-56
2022/07/30 08:02:46;;;;;;;;;10.00;8.00;;;;;35.41;23.96;101536.47;5099295;27;45489;-62
2022/07/30 08:05:11;;;;;;;;;5.20;5.20;;;;;36.13;23.38;101537.22;5098864;27;46100;-59
2022/07/30 08:07:41;;;;;;;;;6.75;5.00;;;;;37.20;22.17;101538.19;5098992;27;45252;-62
2022/07/30 08:10:07;;;;;;;;;5.60;5.60;;;;;37.61;20.83;101523.53;5098826;27;45388;-62
2022/07/30 08:12:33;;;;;;;;;5.60;5.40;;;;;37.28;21.21;101531.13;5099216;27;45238;-56
2022/07/30 08:14:58;;;;;;;;;5.75;5.75;;;;;36.91;22.00;101535.66;5098478;27;45341;-61
2022/07/30 08:17:24;;;;;;;;;9.00;5.00;;;;;37.62;21.02;101535.44;5097296;27;45320;-60
2022/07/30 08:19:50;;;;;;;;;5.75;5.25;;;;;37.82;20.56;101528.63;5098703;27;45342;-64
2022/07/30 08:22:16;;;;;;;;;6.50;4.00;;;;;39.36;19.73;101530.09;5098884;27;45189;-64
2022/07/30 08:24:41;;;;;;;;;6.50;6.50;;;;;40.24;18.24;101531.88;5098721;27;46199;-63
2022/07/30 08:27:07;;;;;;;;;6.75;6.75;;;;;40.69;17.94;101527.91;5098527;27;45587;-62
2022/07/30 08:29:32;;;;;;;;;6.00;4.75;;;;;40.01;18.77;101536.78;5098881;27;45557;-62
2022/07/30 08:31:58;;;;;;;;;7.50;7.50;;;;;39.43;18.89;101538.75;5098705;27;45405;-56
2022/07/30 08:34:23;;;;;;;;;6.75;5.00;;;;;39.09;19.10;101541.41;5097989;27;46142;-58
2022/07/30 08:36:48;;;;;;;;;7.75;5.75;;;;;38.65;19.14;101531.97;5098497;27;45421;-58
2022/07/30 08:39:14;;;;;;;;;6.00;6.00;;;;;38.08;19.80;101540.81;5098551;27;45487;-59
2022/07/30 08:41:41;;;;;;;;;7.00;7.00;;;;;37.50;20.34;101549.84;5098741;27;45397;-59
2022/07/30 08:44:09;;;;;;;;;7.80;6.00;;;;;36.91;21.99;101552.31;5098544;27;47065;-57
2022/07/30 08:46:39;;;;;;;;;5.40;5.00;;;;;36.38;21.63;101546.28;5098440;27;45396;-56
2022/07/30 08:49:05;;;;;;;;;6.80;4.00;;;;;36.85;21.12;101536.91;5098531;27;45369;-58
2022/07/30 08:51:31;;;;;;;;;6.80;5.20;;;;;37.59;20.67;101550.78;5098524;27;45286;-60
2022/07/30 08:53:57;;;;;;;;;6.20;4.60;;;;;38.34;19.69;101543.84;5097910;27;47665;-57
2022/07/30 08:56:23;;;;;;;;;5.40;4.80;;;;;39.21;18.89;101540.78;5096950;27;45354;-60
2022/07/30 08:58:48;;;;;;;;;7.50;5.75;;;;;39.23;18.67;101542.13;5098247;27;45445;-62
2022/07/30 09:01:14;;;;;;;;;6.00;6.00;;;;;39.54;18.99;101539.28;5098549;27;45602;-62
2022/07/30 09:03:39;;;;;;;;;5.25;4.75;;;;;41.67;17.25;101549.16;5097597;27;46127;-63
2022/07/30 09:06:05;;;;;;;;;7.00;5.00;;;;;43.53;15.56;101539.94;5097959;27;45416;-63
2022/07/30 09:08:31;;;;;;;;;6.25;6.25;;;;;44.85;14.65;101545.81;5098221;27;45258;-64
2022/07/30 09:10:57;;;;;;;;;0.25;0.25;;;;;45.85;14.14;101545.44;5098461;27;45292;-58
2022/07/30 09:13:33;;;;;;;;;6.40;6.40;;;;;46.85;12.85;101546.63;5097588;27;46335;-63
2022/07/30 09:15:59;;;;;;;;;5.20;5.20;;;;;47.90;12.23;101543.03;5098057;27;45403;-64
2022/07/30 09:18:39;;;;;;;;;5.80;5.80;;;;;48.40;11.89;101549.31;5097942;27;45375;-64
2022/07/30 09:21:25;;;;;;;;;5.00;5.00;;;;;49.18;12.72;101551.28;5098168;27;45266;-63
2022/07/30 09:24:05;;;;;;;;;5.20;5.20;;;;;49.30;11.60;101545.31;5097866;27;45407;-63
2022/07/30 09:26:32;;;;;;;;;6.80;6.80;;;;;49.23;12.13;101548.09;5097877;27;45308;-63
2022/07/30 09:29:18;;;;;;;;;6.40;6.40;;;;;47.90;12.80;101545.88;5098041;27;45430;-64
2022/07/30 09:31:55;;;;;;;;;6.00;5.00;;;;;46.14;12.78;101558.09;5098170;27;45354;-61
2022/07/30 09:34:26;;;;;;;;;6.20;5.40;;;;;45.61;14.26;101563.34;5097331;27;45369;-61
2022/07/30 09:36:52;;;;;;;;;5.20;5.20;;;;;44.89;14.04;101565.56;5097844;27;45371;-62
2022/07/30 09:39:47;;;;;;;;;10.50;6.00;;;;;45.05;13.65;101567.22;5097654;27;45310;-63
2022/07/30 09:42:26;;;;;;;;;8.80;5.80;;;;;45.63;13.27;101563.78;5075192;28;45595;-63
2022/07/30 09:45:04;;;;;;;;;5.00;5.00;;;;;46.70;13.38;101562.47;5074802;28;45411;-62
2022/07/30 09:47:56;;;;;;;;;3.60;3.60;;;;;47.43;11.98;101564.13;5074709;28;45445;-62
2022/07/30 09:50:23;;;;;;;;;6.40;4.80;;;;;46.94;12.88;101569.72;5071892;28;45407;-63
2022/07/30 09:52:49;;;;;;;;;4.40;4.00;;;;;45.84;12.72;101555.03;5075022;28;45635;-59
2022/07/30 09:55:31;;;;;;;;;4.80;4.40;;;;;46.44;13.17;101572.41;5074699;28;45423;-61
2022/07/30 09:58:00;;;;;;;;;5.60;5.20;;;;;47.95;12.29;101559.63;5075207;28;45255;-63
2022/07/30 10:00:27;;;;;;;;;5.20;3.20;;;;;49.13;10.84;101569.41;5074949;28;45488;-60
2022/07/30 10:02:53;;;;;;;;;4.00;4.00;;;;;49.93;10.29;101569.53;5075056;28;45408;-62
2022/07/30 10:05:19;;;;;;;;;3.80;3.80;;;;;49.90;9.92;101561.88;5074736;28;45483;-61
2022/07/30 10:07:59;;;;;;;;;4.00;4.00;;;;;50.13;10.85;101566.38;5074520;28;45292;-57
2022/07/30 10:10:27;;;;;;;;;4.00;4.00;;;;;50.66;9.88;101560.91;5074695;28;45336;-61
2022/07/30 10:13:00;;;;;;;;;4.20;4.00;;;;;51.55;10.07;101553.59;5074818;28;45501;-63
2022/07/30 10:15:32;;;;;;;;;3.20;3.20;;;;;52.19;9.71;101547.66;5074436;28;46362;-59
2022/07/30 10:17:58;;;;;;;;;4.80;3.40;;;;;52.32;9.34;101548.00;5082927;27;45413;-64
2022/07/30 10:20:25;;;;;;;;;3.40;3.40;;;;;51.95;9.45;101548.59;5101002;27;45420;-63
2022/07/30 10:22:51;;;;;;;;;3.00;3.00;;;;;51.91;9.09;101564.81;5101034;27;45374;-62
2022/07/30 10:25:21;;;;;;;;;3.60;3.60;;;;;51.56;9.62;101561.69;5100436;27;45468;-61
2022/07/30 10:27:48;;;;;;;;;5.20;3.80;;;;;51.21;9.82;101556.88;5100772;27;45251;-64
2022/07/30 10:30:14;;;;;;;;;2.40;2.40;;;;;51.63;9.28;101555.19;5100430;27;45465;-61
2022/07/30 10:32:40;;;;;;;;;2.40;2.40;;;;;52.26;9.34;101552.50;5100641;27;45522;-56
2022/07/30 10:35:07;;;;;;;;;2.50;2.50;;;;;52.53;8.83;101544.19;5100412;27;45977;-57
2022/07/30 10:37:34;;;;;;;;;1.80;1.80;;;;;52.70;8.56;101548.16;5099963;27;45452;-57
2022/07/30 10:40:13;;;;;;;;;4.20;3.20;;;;;52.56;8.79;101538.53;5100555;27;45266;-62
2022/07/30 10:43:05;;;;;;;;;5.40;4.60;;;;;52.29;9.40;101540.31;5100597;27;45547;-56
2022/07/30 10:45:58;;;;;;;;;5.60;4.00;;;;;52.53;8.73;101535.69;5100266;27;45408;-58
2022/07/30 10:48:24;;;;;;;;;5.20;4.00;;;;;52.17;8.46;101527.38;5100138;27;45270;-58
2022/07/30 10:50:57;;;;;;;;;4.00;4.00;;;;;51.99;9.67;101523.84;5100250;27;45426;-56
2022/07/30 10:53:33;;;;;;;;;3.00;3.00;;;;;51.79;9.88;101526.31;5100348;27;45362;-61
2022/07/30 10:56:22;;;;;;;;;4.00;3.40;;;;;51.55;9.80;101531.72;5099937;27;45414;-59
2022/07/30 10:58:59;;;;;;;;;3.00;3.00;;;;;51.33;9.45;101496.09;5099938;27;45241;-61
2022/07/30 11:01:45;;;;;;;;;4.40;3.60;;;;;50.41;9.89;101531.72;5100271;27;45380;-63
2022/07/30 11:04:20;;;;;;;;;5.00;5.00;;;;;50.04;10.00;101524.31;5100218;27;45338;-63
2022/07/30 11:06:46;;;;;;;;;4.00;4.00;;;;;50.28;9.77;101519.16;5099790;27;45973;-62
2022/07/30 11:09:40;;;;;;;;;3.00;3.00;;;;;50.38;10.26;101536.16;5099782;27;45396;-62
2022/07/30 11:12:07;;;;;;;;;5.40;4.00;;;;;50.41;10.10;101523.22;5099839;27;45439;-62
2022/07/30 11:14:44;;;;;;;;;3.00;3.00;;;;;50.20;9.75;101520.34;5098346;27;45447;-61
2022/07/30 11:17:11;;;;;;;;;2.60;2.60;;;;;49.88;9.88;101519.00;5099688;27;46036;-63
2022/07/30 11:20:08;;;;;;;;;6.80;4.00;;;;;49.38;10.75;101515.06;5099589;27;45272;-62
2022/07/30 11:22:39;;;;;;;;;5.80;5.40;;;;;48.58;10.92;101507.16;5099694;27;45352;-62
2022/07/30 11:25:21;;;;;;;;;2.80;2.60;;;;;47.05;11.99;101505.16;5099643;27;45344;-58
2022/07/30 11:27:49;;;;;;;;;8.20;4.60;;;;;45.47;12.59;101515.25;5099110;27;45370;-62
2022/07/30 11:30:14;;;;;;;;;5.00;5.00;;;;;44.13;13.47;101514.94;5099270;27;45449;-64